Weston, Michigan
Current Conditions -  °F | °C
As of 5:53 AM on Sunday 26 Oct 2014 (Local Time) from KADG Reporting Station
Clear Clear  
Wind Chill: 37°   Ceiling: Unl
Heat Index: 41°   Visibility: 10mi
Dew Point: 32°   Wind: 6mph
Humidity: 70%   Direction: 280°W
Pressure: 29.92"   Gusts: NA
Location:  41.77°N, 84.1°W
Report Text: KADG 260953Z AUTO 28005KT 10SM CLR 05/00 A2992 RMK AO2 SLP136 T00500000
Loading
Personal Weather Stations






























Interactive Weather Map
Tropical Storm Tracking
New forecast layout! Learn more

10-Day Weather Forecast

Advertisements
Track Severe Weather on mobile